Time;durP1;ratioP1;P1;durP2;ratioP2;P2;SDS_P1;SDS_P2;PMS_P1;PMS_P2;Temp;Humidity;BMP_temperature;BMP_pressure;BME280_temperature;BME280_humidity;BME280_pressure;Samples;Min_cycle;Max_cycle;Signal;HPM_P1;HPM_P2
2023/02/21 02:15:19;;;;;;;16.63;10.07;;;;;;;13.19;100.00;101846.25;2079118;28;20045;-74
2023/02/21 02:16:44;;;;;;;17.50;8.88;;;;;;;13.21;100.00;101849.78;2096183;28;20719;-74
2023/02/21 02:18:44;;;;;;;15.38;9.38;;;;;;;13.23;100.00;101848.09;2087460;28;20045;-74
2023/02/21 02:20:46;;;;;;;16.73;9.50;;;;;;;13.25;100.00;101845.47;2095922;28;20405;-74
2023/02/21 02:22:48;;;;;;;17.83;9.65;;;;;;;13.24;100.00;101849.88;2096221;28;20045;-74
2023/02/21 02:24:54;;;;;;;16.13;9.18;;;;;;;13.25;100.00;101845.47;2097099;28;20123;-74
2023/02/21 02:26:55;;;;;;;15.98;8.27;;;;;;;13.25;100.00;101840.16;2072531;28;20458;-74
2023/02/21 02:28:34;;;;;;;15.45;8.18;;;;;;;13.26;100.00;101836.66;2075688;28;20055;-75
2023/02/21 02:30:35;;;;;;;14.50;8.93;;;;;;;13.27;100.00;101843.72;2098342;28;20055;-74
2023/02/21 02:32:30;;;;;;;15.68;8.88;;;;;;;13.25;100.00;101841.06;2080529;28;20110;-74
2023/02/21 02:34:26;;;;;;;16.40;8.98;;;;;;;13.24;100.00;101843.69;2090376;28;20377;-74
2023/02/21 02:35:54;;;;;;;11.95;8.07;;;;;;;13.24;100.00;101843.69;2089639;28;20061;-73
2023/02/21 02:37:23;;;;;;;17.08;10.93;;;;;;;13.26;100.00;101848.13;2079348;28;20105;-73
2023/02/21 02:38:56;;;;;;;15.55;8.82;;;;;;;13.28;100.00;101845.53;2077955;28;20156;-74
2023/02/21 02:40:28;;;;;;;16.02;10.32;;;;;;;13.31;100.00;101845.59;2083560;28;20409;-73
2023/02/21 02:41:59;;;;;;;16.33;8.35;;;;;;;13.34;100.00;101849.22;2078587;28;20175;-73
2023/02/21 02:43:27;;;;;;;13.07;8.57;;;;;;;13.39;100.00;101844.88;2093520;28;20048;-73
2023/02/21 02:44:53;;;;;;;16.77;8.80;;;;;;;13.41;100.00;101850.22;2106180;28;20071;-73
2023/02/21 02:46:21;;;;;;;15.65;8.75;;;;;;;13.42;100.00;101849.38;2105654;28;20052;-73
2023/02/21 02:47:49;;;;;;;17.02;8.93;;;;;;;13.41;100.00;101855.53;2104017;28;20818;-74
2023/02/21 02:49:15;;;;;;;14.40;8.73;;;;;;;13.42;100.00;101852.03;2094898;28;20045;-73
2023/02/21 02:50:41;;;;;;;15.73;8.85;;;;;;;13.42;100.00;101846.72;2095910;28;20385;-73
2023/02/21 02:52:07;;;;;;;15.88;8.55;;;;;;;13.43;100.00;101846.75;2093554;28;20104;-73
2023/02/21 02:53:30;;;;;;;15.73;9.35;;;;;;;13.46;100.00;101852.13;2091298;28;21424;-74
2023/02/21 02:55:02;;;;;;;15.93;8.77;;;;;;;13.48;100.00;101845.09;2093288;28;20044;-73
2023/02/21 02:56:27;;;;;;;15.90;9.90;;;;;;;13.50;100.00;101855.75;2095778;28;20045;-73
2023/02/21 02:57:52;;;;;;;26.98;20.05;;;;;;;13.51;100.00;101853.13;2093035;28;20041;-74
2023/02/21 02:59:20;;;;;;;29.63;17.90;;;;;;;13.50;100.00;101851.34;2093414;28;20478;-73
2023/02/21 03:00:54;;;;;;;19.95;14.98;;;;;;;13.47;100.00;101850.38;2095347;28;20079;-73
2023/02/21 03:02:34;;;;;;;14.90;10.85;;;;;;;13.41;100.00;101855.53;2096699;28;20048;-73
2023/02/21 03:04:12;;;;;;;16.23;10.75;;;;;;;13.34;100.00;101856.25;2101531;28;20036;-73
2023/02/21 03:05:50;;;;;;;16.05;8.90;;;;;;;13.31;100.00;101856.22;2097114;28;20577;-73
2023/02/21 03:07:23;;;;;;;14.32;9.10;;;;;;;13.25;100.00;101854.31;2096637;28;20048;-74
2023/02/21 03:08:53;;;;;;;15.55;9.18;;;;;;;13.21;100.00;101857.75;2088516;28;20048;-73
2023/02/21 03:10:23;;;;;;;16.40;9.57;;;;;;;13.18;100.00;101846.19;2094306;28;20500;-73
2023/02/21 03:11:56;;;;;;;18.85;9.43;;;;;;;13.15;100.00;101858.50;2096073;28;20052;-73
2023/02/21 03:13:26;;;;;;;17.50;8.77;;;;;;;13.12;100.00;101857.53;2087997;28;20094;-72
2023/02/21 03:14:56;;;;;;;15.65;8.80;;;;;;;13.11;100.00;101859.28;2079460;28;20137;-73
2023/02/21 03:16:24;;;;;;;14.38;8.23;;;;;;;13.11;100.00;101866.34;2085367;28;20041;-73
2023/02/21 03:17:53;;;;;;;16.30;7.60;;;;;;;13.13;100.00;101861.97;2095529;28;20064;-73
2023/02/21 03:19:19;;;;;;;17.45;8.65;;;;;;;13.18;100.00;101860.34;2095665;28;20044;-73
2023/02/21 03:20:43;;;;;;;14.63;8.10;;;;;;;13.24;100.00;101862.25;2093118;28;20114;-73
2023/02/21 03:22:10;;;;;;;16.88;8.63;;;;;;;13.27;100.00;101860.53;2100100;28;20493;-73
2023/02/21 03:23:35;;;;;;;14.38;9.07;;;;;;;13.32;100.00;101863.31;2095515;28;20048;-72
2023/02/21 03:25:00;;;;;;;16.73;9.23;;;;;;;13.33;100.00;101865.97;2092826;28;20110;-73
2023/02/21 03:26:22;;;;;;;15.05;7.82;;;;;;;13.32;100.00;101869.53;2103668;28;20106;-73
2023/02/21 03:27:54;;;;;;;17.65;8.68;;;;;;;13.32;100.00;101860.66;2097055;28;20052;-73
2023/02/21 03:29:21;;;;;;;13.43;7.85;;;;;;;13.30;100.00;101865.94;2094125;28;20408;-73
2023/02/21 03:30:47;;;;;;;14.05;8.63;;;;;;;13.33;100.00;101865.06;2094985;28;20059;-73
2023/02/21 03:33:34;;;;;;;17.23;9.13;;;;;;;13.34;100.00;101864.22;2094719;28;20041;-72
2023/02/21 03:34:56;;;;;;;15.18;9.10;;;;;;;13.38;100.00;101866.09;2088884;28;20049;-74
2023/02/21 03:36:21;;;;;;;15.60;9.65;;;;;;;13.41;100.00;101875.00;2086472;28;20111;-73
2023/02/21 03:37:45;;;;;;;15.10;8.40;;;;;;;13.44;100.00;101871.53;2094762;28;20472;-74
2023/02/21 03:39:08;;;;;;;11.57;7.20;;;;;;;13.46;100.00;101875.09;2086817;28;20053;-73
2023/02/21 03:40:33;;;;;;;15.50;8.27;;;;;;;13.42;100.00;101873.25;2085912;28;20040;-73
2023/02/21 03:41:57;;;;;;;15.77;7.47;;;;;;;13.38;100.00;101874.06;2092867;28;20048;-73
2023/02/21 03:43:19;;;;;;;12.13;6.90;;;;;;;13.35;100.00;101873.97;2084008;28;20057;-73
2023/02/21 03:44:47;;;;;;;14.10;7.57;;;;;;;13.30;100.00;101865.94;2091126;28;20374;-73
2023/02/21 03:46:10;;;;;;;13.60;7.65;;;;;;;13.30;100.00;101865.03;2092399;28;20187;-73
2023/02/21 03:47:31;;;;;;;13.35;8.50;;;;;;;13.30;100.00;101870.34;2092078;28;20045;-73
2023/02/21 03:48:54;;;;;;;14.38;9.13;;;;;;;13.27;100.00;101876.44;2091508;28;20050;-73
2023/02/21 03:50:20;;;;;;;16.00;8.38;;;;;;;13.25;100.00;101872.91;2092562;28;20060;-73
2023/02/21 03:51:43;;;;;;;15.63;9.10;;;;;;;13.25;100.00;101870.25;2094531;28;20064;-74
2023/02/21 03:53:06;;;;;;;17.05;8.95;;;;;;;13.25;100.00;101872.00;2091855;28;20049;-72
2023/02/21 03:54:30;;;;;;;17.33;9.32;;;;;;;13.25;100.00;101878.19;2091880;28;20055;-72
2023/02/21 03:55:54;;;;;;;16.90;9.80;;;;;;;13.23;100.00;101871.94;2092585;28;20048;-74
2023/02/21 03:57:25;;;;;;;13.13;8.57;;;;;;;13.21;100.00;101870.13;2094038;28;20102;-73
2023/02/21 03:58:50;;;;;;;16.42;8.80;;;;;;;13.22;100.00;101872.81;2092452;28;20052;-73
2023/02/21 04:00:13;;;;;;;16.45;9.10;;;;;;;13.21;100.00;101873.66;2100803;28;20101;-73
2023/02/21 04:01:38;;;;;;;16.50;9.40;;;;;;;13.18;100.00;101876.25;2101195;28;20420;-72
2023/02/21 04:03:07;;;;;;;16.58;9.20;;;;;;;13.14;100.00;101871.72;2094401;28;20078;-73
2023/02/21 04:04:49;;;;;;;;;;;;;;;12.99;100.00;101874.00;2114097;28;20102;-73
2023/02/21 04:06:14;;;;;;;12.88;7.45;;;;;;;12.95;100.00;101874.78;2097380;28;19955;-73
2023/02/21 04:07:36;;;;;;;16.50;8.50;;;;;;;12.92;100.00;101872.06;2091549;28;20040;-73
2023/02/21 04:08:59;;;;;;;13.85;8.02;;;;;;;12.89;100.00;101877.28;2091680;28;20044;-73
2023/02/21 04:10:22;;;;;;;14.88;8.55;;;;;;;12.83;100.00;101880.69;2092088;28;20601;-73
2023/02/21 04:11:45;;;;;;;17.45;9.10;;;;;;;12.78;100.00;101877.94;2087463;28;20176;-73
2023/02/21 04:13:08;;;;;;;17.23;10.07;;;;;;;12.73;100.00;101882.19;2085711;28;20481;-73
2023/02/21 04:14:35;;;;;;;14.07;8.77;;;;;;;12.70;100.00;101875.94;2093650;28;20044;-73
2023/02/21 04:15:58;;;;;;;17.67;9.52;;;;;;;12.68;100.00;101880.31;2094326;28;20044;-72
2023/02/21 04:17:20;;;;;;;20.77;11.18;;;;;;;12.66;100.00;101874.09;2099068;28;20047;-72
2023/02/21 04:18:44;;;;;;;19.75;10.98;;;;;;;12.63;100.00;101881.94;2094240;28;20059;-73
2023/02/21 04:20:09;;;;;;;18.85;10.38;;;;;;;12.60;100.00;101879.25;2094651;28;20052;-73
2023/02/21 04:21:37;;;;;;;20.52;10.35;;;;;;;12.56;100.00;101880.91;2091629;28;20069;-73
2023/02/21 04:23:00;;;;;;;16.35;10.38;;;;;;;12.52;100.00;101875.50;2088725;28;20056;-73
2023/02/21 04:24:22;;;;;;;17.85;8.88;;;;;;;12.49;100.00;101876.28;2085737;28;20060;-73
2023/02/21 04:25:46;;;;;;;13.65;7.63;;;;;;;12.46;100.00;101876.22;2091815;28;20686;-73
2023/02/21 04:27:13;;;;;;;14.15;7.03;;;;;;;12.41;100.00;101876.94;2086599;28;20056;-73
2023/02/21 04:28:40;;;;;;;14.93;8.45;;;;;;;12.36;100.00;101872.44;2092652;28;20101;-74
2023/02/21 04:30:02;;;;;;;28.30;21.58;;;;;;;12.33;100.00;101871.47;2086021;28;20508;-73
2023/02/21 04:31:24;;;;;;;23.45;16.35;;;;;;;12.29;100.00;101874.88;2094613;28;20051;-74
2023/02/21 04:32:47;;;;;;;;;;;;;;;12.17;100.00;101882.50;2088668;28;20041;-74
2023/02/21 04:34:10;;;;;;;17.40;9.95;;;;;;;12.13;100.00;101878.00;2086454;28;20007;-74
2023/02/21 04:35:32;;;;;;;20.02;11.82;;;;;;;12.14;100.00;101871.84;2083585;28;20566;-74
2023/02/21 04:36:59;;;;;;;18.70;9.95;;;;;;;12.12;100.00;101869.16;2086154;28;20041;-74
2023/02/21 04:38:20;;;;;;;16.70;9.55;;;;;;;12.12;100.00;101868.25;2082994;28;20045;-73
2023/02/21 04:39:45;;;;;;;15.90;9.48;;;;;;;12.13;100.00;101868.31;2095299;28;20044;-74
2023/02/21 04:41:08;;;;;;;18.42;9.68;;;;;;;12.16;100.00;101870.13;2093959;28;20049;-74
2023/02/21 04:42:32;;;;;;;18.38;11.55;;;;;;;12.18;100.00;101876.34;2091557;28;20467;-74
2023/02/21 04:43:53;;;;;;;18.38;12.40;;;;;;;12.17;100.00;101877.19;2099919;28;20048;-74
2023/02/21 04:45:16;;;;;;;23.48;14.85;;;;;;;12.13;100.00;101884.19;2093014;28;20047;-74
2023/02/21 04:46:38;;;;;;;60.30;35.83;;;;;;;12.02;100.00;101887.38;2099957;28;20120;-74
2023/02/21 04:48:01;;;;;;;51.05;28.58;;;;;;;11.89;100.00;101880.84;2094216;28;20052;-74
2023/02/21 04:49:24;;;;;;;27.98;17.92;;;;;;;11.82;100.00;101882.41;2090804;28;20442;-74
2023/02/21 04:50:47;;;;;;;27.40;16.58;;;;;;;11.81;100.00;101880.66;2092029;28;20041;-74
2023/02/21 04:52:08;;;;;;;19.40;10.05;;;;;;;11.84;100.00;101883.34;2085812;28;20104;-74
2023/02/21 04:53:31;;;;;;;19.73;12.35;;;;;;;11.90;100.00;101886.19;2082757;28;20500;-73
2023/02/21 04:54:52;;;;;;;34.00;20.55;;;;;;;11.93;100.00;101888.94;2085921;28;20049;-73
2023/02/21 04:56:19;;;;;;;37.53;30.25;;;;;;;11.93;100.00;101886.28;2083126;28;20052;-73
2023/02/21 04:57:42;;;;;;;26.50;17.92;;;;;;;11.92;100.00;101889.78;2092075;28;20940;-74
2023/02/21 04:59:03;;;;;;;55.22;42.83;;;;;;;11.92;100.00;101883.59;2089931;28;20135;-73
2023/02/21 05:00:25;;;;;;;43.63;36.85;;;;;;;11.87;100.00;101891.41;2096445;28;20119;-74
2023/02/21 05:01:48;;;;;;;37.28;30.27;;;;;;;11.84;100.00;101896.59;2085386;28;20635;-73
2023/02/21 05:03:11;;;;;;;29.10;21.90;;;;;;;11.83;100.00;101891.25;2091508;28;20057;-74
2023/02/21 05:04:34;;;;;;;28.23;19.92;;;;;;;11.82;100.00;101890.34;2093847;28;20103;-74
2023/02/21 05:05:55;;;;;;;24.30;15.57;;;;;;;11.85;100.00;101889.56;2093891;28;20101;-74
2023/02/21 05:07:18;;;;;;;21.77;12.05;;;;;;;11.86;100.00;101886.94;2094112;28;20090;-74
2023/02/21 05:08:39;;;;;;;20.65;16.92;;;;;;;11.89;100.00;101886.13;2085841;28;20037;-73
2023/02/21 05:10:05;;;;;;;21.75;15.48;;;;;;;11.92;100.00;101891.53;2086931;28;20060;-74
2023/02/21 05:11:33;;;;;;;13.40;8.68;;;;;;;11.94;100.00;101889.81;2100505;28;20036;-74
2023/02/21 05:12:54;;;;;;;15.85;8.20;;;;;;;11.95;100.00;101897.78;2094655;28;20049;-73
2023/02/21 05:14:17;;;;;;;19.02;10.90;;;;;;;11.96;100.00;101891.63;2093764;28;20124;-74
2023/02/21 05:15:38;;;;;;;21.83;17.17;;;;;;;11.97;100.00;101893.44;2095787;28;20071;-73
2023/02/21 05:17:01;;;;;;;22.20;17.13;;;;;;;11.95;100.00;101897.78;2096300;28;20143;-73
2023/02/21 05:18:27;;;;;;;24.75;14.82;;;;;;;11.92;100.00;101897.72;2093949;28;20048;-73
2023/02/21 05:19:48;;;;;;;16.13;11.80;;;;;;;11.92;100.00;101897.72;2095162;28;20148;-73
2023/02/21 05:21:11;;;;;;;20.48;13.35;;;;;;;11.95;100.00;101891.59;2093824;28;20493;-74
2023/02/21 05:22:37;;;;;;;25.85;15.90;;;;;;;12.01;100.00;101898.84;2093693;28;20097;-74
2023/02/21 05:23:59;;;;;;;23.38;16.58;;;;;;;12.03;100.00;101895.34;2100775;28;20396;-74
2023/02/21 05:25:22;;;;;;;21.67;16.17;;;;;;;12.07;100.00;101899.00;2093913;28;20079;-74
2023/02/21 05:26:46;;;;;;;19.08;14.00;;;;;;;12.10;100.00;101902.63;2085226;28;20048;-73
2023/02/21 05:28:10;;;;;;;16.58;10.57;;;;;;;12.13;100.00;101897.41;2091962;28;20052;-74
2023/02/21 05:29:33;;;;;;;19.45;12.18;;;;;;;12.20;100.00;101904.69;2096524;28;20408;-73
2023/02/21 05:30:54;;;;;;;19.40;12.68;;;;;;;12.29;100.00;101904.91;2093713;28;20044;-74
2023/02/21 05:32:17;;;;;;;18.85;13.23;;;;;;;12.37;100.00;101902.47;2094085;28;20642;-74
2023/02/21 05:33:40;;;;;;;22.83;13.45;;;;;;;12.41;100.00;101898.13;2085875;28;20094;-74
2023/02/21 05:35:01;;;;;;;20.75;11.80;;;;;;;12.42;100.00;101899.94;2083064;28;20101;-73
2023/02/21 05:36:24;;;;;;;14.07;9.77;;;;;;;12.43;100.00;101899.97;2091374;28;20080;-73
2023/02/21 05:37:47;;;;;;;14.05;10.50;;;;;;;12.49;100.00;101902.78;2085746;28;20473;-73
2023/02/21 05:39:10;;;;;;;19.30;11.93;;;;;;;12.56;100.00;101904.75;2092769;28;20047;-74
2023/02/21 05:40:31;;;;;;;15.38;12.63;;;;;;;12.61;100.00;101903.09;2085871;28;20041;-74
2023/02/21 05:41:58;;;;;;;23.25;16.90;;;;;;;12.66;100.00;101909.44;2098831;28;20093;-73
2023/02/21 05:43:19;;;;;;;23.60;16.77;;;;;;;12.68;100.00;101898.84;2096327;28;20137;-74
2023/02/21 05:44:44;;;;;;;21.08;18.60;;;;;;;12.72;100.00;101896.34;2088147;28;20056;-74
2023/02/21 05:46:05;;;;;;;20.13;14.65;;;;;;;12.77;100.00;101900.00;2094158;28;20048;-74
2023/02/21 05:47:28;;;;;;;19.77;15.85;;;;;;;12.83;100.00;101904.53;2093433;28;20052;-74
2023/02/21 05:48:49;;;;;;;16.80;13.95;;;;;;;12.88;100.00;101905.53;2095001;28;20076;-74
2023/02/21 05:50:12;;;;;;;16.02;11.50;;;;;;;12.90;100.00;101909.13;2093768;28;20044;-74
2023/02/21 05:51:36;;;;;;;21.00;14.98;;;;;;;12.91;100.00;101907.38;2085562;28;20056;-73
2023/02/21 05:53:00;;;;;;;16.25;11.68;;;;;;;12.93;100.00;101905.69;2098594;28;20141;-74
2023/02/21 05:54:22;;;;;;;17.05;12.13;;;;;;;12.92;100.00;101903.88;2094614;28;20077;-74
2023/02/21 05:55:45;;;;;;;16.10;10.68;;;;;;;12.91;100.00;101907.38;2084981;28;20053;-74
2023/02/21 05:57:09;;;;;;;18.42;12.65;;;;;;;12.89;100.00;101903.78;2091066;28;20266;-74
2023/02/21 05:58:31;;;;;;;22.13;16.35;;;;;;;12.89;100.00;101909.09;2102525;28;20044;-74
2023/02/21 05:59:53;;;;;;;25.73;19.25;;;;;;;12.86;100.00;101912.59;2103430;28;20047;-74
2023/02/21 06:01:14;;;;;;;31.17;23.45;;;;;;;12.87;100.00;101913.44;2100728;28;20052;-73
2023/02/21 06:02:37;;;;;;;25.42;16.92;;;;;;;12.88;100.00;101912.59;2097560;28;20143;-75
2023/02/21 06:03:59;;;;;;;22.40;16.15;;;;;;;12.92;100.00;101919.78;2086844;28;20052;-74
2023/02/21 06:05:22;;;;;;;26.17;17.83;;;;;;;12.95;100.00;101912.78;2092822;28;20075;-74
2023/02/21 06:06:45;;;;;;;24.38;16.90;;;;;;;13.02;100.00;101921.78;2089467;28;20484;-74
2023/02/21 06:08:07;;;;;;;23.33;20.15;;;;;;;13.08;100.00;101916.63;2091873;28;20045;-74
2023/02/21 06:09:30;;;;;;;20.33;17.52;;;;;;;13.14;100.00;101908.84;2100840;28;20036;-74
2023/02/21 06:10:52;;;;;;;27.45;24.50;;;;;;;13.17;100.00;101914.25;2095371;28;20484;-74
2023/02/21 06:12:19;;;;;;;37.58;33.78;;;;;;;13.24;100.00;101916.19;2087413;28;20090;-75
2023/02/21 06:13:42;;;;;;;28.10;22.63;;;;;;;13.30;100.00;101916.31;2085217;28;20048;-74
2023/02/21 06:15:06;;;;;;;29.80;25.58;;;;;;;13.36;100.00;101918.22;2095345;28;20604;-74
2023/02/21 06:16:32;;;;;;;27.02;22.42;;;;;;;13.37;100.00;101918.25;2087061;28;20075;-74
2023/02/21 06:17:54;;;;;;;29.15;24.33;;;;;;;13.37;100.00;101912.03;2093875;28;20048;-74
2023/02/21 06:19:16;;;;;;;36.10;32.22;;;;;;;13.35;100.00;101927.91;2097927;28;20496;-75
2023/02/21 06:20:39;;;;;;;24.08;19.23;;;;;;;13.32;100.00;101919.91;2102013;28;20052;-74
2023/02/21 06:22:01;;;;;;;17.20;13.95;;;;;;;13.32;100.00;101921.66;2103565;28;20051;-75
2023/02/21 06:23:22;;;;;;;23.85;16.65;;;;;;;13.32;100.00;101927.88;2096386;28;20136;-74
2023/02/21 06:24:45;;;;;;;22.50;16.38;;;;;;;13.36;100.00;101926.16;2087181;28;20053;-74
2023/02/21 06:26:07;;;;;;;23.73;16.70;;;;;;;13.42;100.00;101926.31;2084416;28;20049;-73
2023/02/21 06:27:31;;;;;;;23.45;18.40;;;;;;;13.46;100.00;101926.41;2086576;28;20075;-74
2023/02/21 06:28:53;;;;;;;22.60;18.02;;;;;;;13.47;100.00;101933.50;2092881;28;20056;-75
2023/02/21 06:30:16;;;;;;;27.60;19.58;;;;;;;13.51;100.00;101930.06;2095212;28;20079;-74
2023/02/21 06:31:38;;;;;;;24.08;18.85;;;;;;;13.58;100.00;101939.06;2094890;28;20044;-74
2023/02/21 06:32:59;;;;;;;24.98;17.98;;;;;;;13.67;100.00;101939.25;2092500;28;20041;-74
2023/02/21 06:34:22;;;;;;;22.17;15.32;;;;;;;13.80;100.00;101938.66;2100877;28;20122;-74
2023/02/21 06:35:44;;;;;;;17.10;11.88;;;;;;;13.95;100.00;101938.97;2103309;28;20056;-74
2023/02/21 06:37:09;;;;;;;16.77;11.20;;;;;;;14.15;100.00;101939.38;2103838;28;20047;-75
2023/02/21 06:38:31;;;;;;;15.25;9.88;;;;;;;14.33;100.00;101934.41;2103417;28;20063;-74
2023/02/21 06:39:53;;;;;;;15.48;10.07;;;;;;;14.53;100.00;101941.91;2094998;28;20060;-75
2023/02/21 06:41:17;;;;;;;15.75;9.07;;;;;;;14.71;100.00;101935.16;2100474;28;20419;-75
2023/02/21 06:42:41;;;;;;;14.38;8.82;;;;;;;14.84;100.00;101933.59;2095110;28;20032;-74
2023/02/21 06:44:03;;;;;;;14.45;8.48;;;;;;;14.88;100.00;101932.78;2101002;28;20498;-74
2023/02/21 06:45:26;;;;;;;16.00;9.25;;;;;;;14.96;100.00;101930.28;2103233;28;20516;-74
2023/02/21 06:46:49;;;;;;;17.67;10.35;;;;;;;15.02;100.00;101927.69;2103586;28;20052;-74
2023/02/21 06:48:15;;;;;;;16.48;10.38;;;;;;;15.12;100.00;101926.97;2095925;28;20040;-74
2023/02/21 06:49:38;;;;;;;25.67;15.40;;;;;;;15.22;100.00;101928.03;2095596;28;20147;-74
2023/02/21 06:51:00;;;;;;;24.50;14.13;;;;;;;15.33;100.00;101932.63;2103489;28;20044;-73
2023/02/21 06:52:22;;;;;;;23.63;14.88;;;;;;;15.42;100.00;101938.09;2102719;28;20471;-73
2023/02/21 06:53:50;;;;;;;23.48;13.82;;;;;;;15.51;100.00;101940.88;2103711;28;20040;-74
2023/02/21 06:55:13;;;;;;;28.30;16.10;;;;;;;15.60;100.00;101944.56;2103832;28;20051;-74
2023/02/21 06:56:36;;;;;;;29.33;15.57;;;;;;;15.65;100.00;101940.19;2095031;28;20045;-74
2023/02/21 06:58:00;;;;;;;24.85;14.02;;;;;;;15.72;100.00;101940.31;2100156;28;20059;-73
2023/02/21 06:59:23;;;;;;;20.67;12.88;;;;;;;15.75;100.00;101945.66;2095044;28;20047;-74
2023/02/21 07:00:45;;;;;;;22.17;12.88;;;;;;;15.78;100.00;101943.06;2099122;28;20048;-74
2023/02/21 07:02:17;;;;;;;22.05;12.63;;;;;;;15.80;100.00;101946.63;2094666;28;20048;-74
2023/02/21 07:03:41;;;;;;;25.95;14.05;;;;;;;15.84;100.00;101950.22;2102876;28;20481;-74
2023/02/21 07:05:05;;;;;;;25.60;14.07;;;;;;;15.98;100.00;101940.66;2093951;28;20063;-74
2023/02/21 07:06:28;;;;;;;27.27;14.65;;;;;;;16.11;100.00;101942.56;2093603;28;20049;-74
2023/02/21 07:07:53;;;;;;;24.98;15.90;;;;;;;16.26;100.00;101950.75;2087056;28;20127;-74
2023/02/21 07:09:16;;;;;;;23.40;14.48;;;;;;;16.42;100.00;101943.81;2092415;28;20065;-74
2023/02/21 07:10:39;;;;;;;26.27;14.30;;;;;;;16.54;100.00;101946.59;2086911;28;20094;-75
2023/02/21 07:12:02;;;;;;;23.58;13.95;;;;;;;16.61;100.00;101947.59;2084066;28;20049;-74
2023/02/21 07:13:25;;;;;;;26.55;14.18;;;;;;;16.66;100.00;101952.13;2092147;28;20048;-74
2023/02/21 07:14:48;;;;;;;24.35;14.95;;;;;;;16.67;100.00;101947.69;2088741;28;20060;-74
2023/02/21 07:16:10;;;;;;;22.35;14.10;;;;;;;16.64;100.00;101945.88;2097060;28;20040;-74
2023/02/21 07:17:33;;;;;;;22.08;13.13;;;;;;;16.59;100.00;101944.91;2102928;28;20055;-74
2023/02/21 07:18:56;;;;;;;23.27;12.85;;;;;;;16.53;100.00;101942.16;2097679;28;20514;-74
2023/02/21 07:20:18;;;;;;;22.42;13.82;;;;;;;16.49;100.00;101947.44;2094758;28;20052;-74
2023/02/21 07:21:41;;;;;;;25.75;13.10;;;;;;;16.46;100.00;101940.31;2098220;28;20079;-74
2023/02/21 07:23:03;;;;;;;24.70;14.40;;;;;;;16.46;100.00;101948.31;2089164;28;20616;-74
2023/02/21 07:24:25;;;;;;;26.83;15.63;;;;;;;16.46;100.00;101942.97;2083886;28;20041;-74
2023/02/21 07:25:48;;;;;;;25.23;14.32;;;;;;;16.50;100.00;101950.13;2094628;28;20064;-74
2023/02/21 07:27:10;;;;;;;23.67;14.95;;;;;;;16.59;100.00;101946.66;2100755;28;21909;-74
2023/02/21 07:28:34;;;;;;;22.00;13.93;;;;;;;16.71;100.00;101947.72;2098186;28;20040;-75
2023/02/21 07:29:56;;;;;;;22.92;12.73;;;;;;;16.96;100.00;101948.81;2093884;28;20079;-74
2023/02/21 07:31:19;;;;;;;23.73;11.68;;;;;;;17.36;100.00;101941.13;2100688;28;20052;-74
2023/02/21 07:32:40;;;;;;;17.35;10.73;;;;;;;17.78;100.00;101943.19;2103064;28;20044;-74
2023/02/21 07:34:03;;;;;;;14.75;9.77;;;;;;;18.04;100.00;101944.19;2102454;28;20160;-74
2023/02/21 07:35:25;;;;;;;14.30;7.65;;;;;;;18.08;100.00;101945.09;2094871;28;20460;-74
2023/02/21 07:36:48;;;;;;;13.18;6.82;;;;;;;17.98;100.00;101951.31;2100348;28;20101;-74
2023/02/21 07:38:09;;;;;;;17.70;8.05;;;;;;;17.85;100.00;101945.88;2094381;28;20443;-74
2023/02/21 07:39:32;;;;;;;14.50;10.60;;;;;;;17.71;100.00;101955.63;2092069;28;20040;-75
2023/02/21 07:40:54;;;;;;;23.23;15.23;;;;;;;17.56;100.00;101941.25;2093694;28;20079;-75
2023/02/21 07:42:16;;;;;;;13.77;8.35;;;;;;;17.39;100.00;101946.50;2091057;28;20570;-74
2023/02/21 07:43:42;;;;;;;13.07;7.32;;;;;;;17.23;100.00;101944.56;2092360;28;20045;-75
2023/02/21 07:45:05;;;;;;;14.93;7.38;;;;;;;17.06;100.00;101937.34;2100082;28;20063;-75
2023/02/21 07:46:28;;;;;;;23.55;11.35;;;;;;;16.94;100.00;101939.00;2099304;28;20040;-77
2023/02/21 07:47:52;;;;;;;15.48;8.77;;;;;;;16.87;100.00;101955.88;2099202;28;20043;-77
2023/02/21 07:49:15;;;;;;;16.17;9.52;;;;;;;16.84;100.00;101945.16;2101988;28;20093;-74
2023/02/21 07:50:38;;;;;;;16.67;11.32;;;;;;;16.84;100.00;101951.38;2102955;28;20047;-74
2023/02/21 07:52:00;;;;;;;28.38;20.00;;;;;;;16.87;100.00;101943.38;2098819;28;20069;-75
2023/02/21 07:53:22;;;;;;;24.35;18.92;;;;;;;16.93;100.00;101945.25;2097178;28;20052;-74
2023/02/21 07:54:45;;;;;;;17.23;13.57;;;;;;;17.08;100.00;101946.25;2101157;28;20091;-74
2023/02/21 07:56:07;;;;;;;13.35;9.48;;;;;;;17.49;100.00;101941.22;2093753;28;20045;-74
2023/02/21 07:57:30;;;;;;;13.13;7.25;;;;;;;18.03;100.00;101937.06;2094138;28;20059;-74
2023/02/21 07:58:53;;;;;;;11.82;6.32;;;;;;;18.52;100.00;101938.09;2097540;28;20078;-74
2023/02/21 08:00:18;;;;;;;11.57;6.40;;;;;;;18.85;100.00;101931.91;2101953;28;20117;-74
2023/02/21 08:01:40;;;;;;;10.88;5.72;;;;;;;19.20;100.00;101928.34;2091672;28;20524;-74
2023/02/21 08:03:02;;;;;;;10.82;5.50;;;;;;;19.47;100.00;101923.88;2086321;28;20079;-75
2023/02/21 08:04:25;;;;;;;8.13;4.45;;;;;;;19.48;100.00;101924.75;2100087;28;20048;-75
2023/02/21 08:05:48;;;;;;;10.05;4.72;;;;;;;19.34;100.00;101923.84;2100381;28;20097;-76
2023/02/21 08:07:10;;;;;;;8.65;5.60;;;;;;;19.11;100.00;101927.44;2094461;28;20101;-75
2023/02/21 08:08:32;;;;;;;12.93;5.93;;;;;;;18.87;100.00;101924.78;2086438;28;20037;-75
2023/02/21 08:09:55;;;;;;;11.00;5.55;;;;;;;18.62;100.00;101921.22;2099996;28;20516;-76
2023/02/21 08:11:17;;;;;;;9.82;5.45;;;;;;;18.37;100.00;101921.13;2097263;28;20036;-76
2023/02/21 08:12:41;;;;;;;9.73;5.13;;;;;;;18.21;100.00;101921.09;2096786;28;20067;-75
2023/02/21 08:14:05;;;;;;;12.00;5.95;;;;;;;18.26;100.00;101921.97;2102733;28;20047;-74
2023/02/21 08:15:28;;;;;;;10.07;5.07;;;;;;;18.41;100.00;101926.47;2093218;28;20400;-74
2023/02/21 08:16:50;;;;;;;10.60;6.18;;;;;;;18.61;100.00;101931.91;2089874;28;20048;-75
2023/02/21 08:18:19;;;;;;;8.00;4.90;;;;;;;18.91;100.00;101923.88;2082735;28;21750;-75
2023/02/21 08:19:41;;;;;;;10.70;5.07;;;;;;;19.22;100.00;101924.78;2085110;28;20048;-75
2023/02/21 08:21:04;;;;;;;9.07;4.70;;;;;;;19.57;100.00;101923.81;2093445;28;20135;-75
2023/02/21 08:22:26;;;;;;;11.38;5.10;;;;;;;19.81;100.00;101921.09;2101420;28;20059;-75
2023/02/21 08:23:49;;;;;;;10.13;4.78;;;;;;;20.00;100.00;101922.78;2092634;28;20040;-75
2023/02/21 08:25:11;;;;;;;11.68;5.25;;;;;;;20.23;100.00;101922.66;2096094;28;20267;-75
2023/02/21 08:26:33;;;;;;;9.68;5.55;;;;;;;20.51;100.00;101921.63;2086823;28;20727;-75
2023/02/21 08:27:55;;;;;;;8.63;4.60;;;;;;;20.80;100.00;101924.13;2099071;28;20139;-75
2023/02/21 08:29:19;;;;;;;9.05;4.05;;;;;;;21.13;100.00;101917.56;2102877;28;20047;-75
2023/02/21 08:30:42;;;;;;;8.65;3.80;;;;;;;21.31;100.00;101916.53;2110879;28;20040;-76
2023/02/21 08:32:05;;;;;;;9.73;4.93;;;;;;;21.28;100.00;101919.22;2096605;28;20060;-75
2023/02/21 08:33:27;;;;;;;12.05;5.57;;;;;;;21.20;100.00;101921.13;2102712;28;20040;-75
2023/02/21 08:34:50;;;;;;;5.88;3.75;;;;;;;21.08;100.00;101924.75;2096874;28;20052;-75
2023/02/21 08:36:12;;;;;;;6.82;4.05;;;;;;;20.96;100.00;101911.44;2088356;28;20045;-76
2023/02/21 08:37:36;;;;;;;9.85;3.95;;;;;;;20.95;100.00;101917.72;2101246;28;20039;-75
2023/02/21 08:38:58;;;;;;;9.38;3.83;;;;;;;20.97;100.00;101916.81;2102673;28;20040;-75
2023/02/21 08:40:21;;;;;;;9.52;3.38;;;;;;;21.05;100.00;101917.63;2094270;28;20063;-76
2023/02/21 08:41:45;;;;;;;8.27;3.58;;;;;;;21.29;100.00;101921.91;2099989;28;20602;-75